sensor_id;sensor_type;location;lat;lon;timestamp;pressure;altitude;pressure_sealevel;temperature;humidity
75740;BME280;64357;51.344;6.550;2023-05-10T00:01:39;100361.88;;;12.87;100.00
75740;BME280;64357;51.344;6.550;2023-05-10T00:04:05;100355.97;;;12.88;100.00
75740;BME280;64357;51.344;6.550;2023-05-10T00:06:30;100354.56;;;12.81;100.00
75740;BME280;64357;51.344;6.550;2023-05-10T00:08:56;100360.97;;;12.76;100.00
75740;BME280;64357;51.344;6.550;2023-05-10T00:11:22;100357.50;;;12.76;100.00
75740;BME280;64357;51.344;6.550;2023-05-10T00:13:47;100358.41;;;12.76;100.00
75740;BME280;64357;51.344;6.550;2023-05-10T00:16:13;100353.06;;;12.73;100.00
75740;BME280;64357;51.344;6.550;2023-05-10T00:18:39;100353.56;;;12.69;100.00
75740;BME280;64357;51.344;6.550;2023-05-10T00:21:05;100345.88;;;12.69;100.00
75740;BME280;64357;51.344;6.550;2023-05-10T00:23:30;100362.78;;;12.67;100.00
75740;BME280;64357;51.344;6.550;2023-05-10T00:25:56;100362.03;;;12.68;100.00
75740;BME280;64357;51.344;6.550;2023-05-10T00:28:23;100363.81;;;12.69;100.00
75740;BME280;64357;51.344;6.550;2023-05-10T00:30:51;100359.34;;;12.67;100.00
75740;BME280;64357;51.344;6.550;2023-05-10T00:33:16;100360.75;;;12.73;100.00
75740;BME280;64357;51.344;6.550;2023-05-10T00:35:43;100359.97;;;12.64;100.00
75740;BME280;64357;51.344;6.550;2023-05-10T00:38:08;100358.81;;;12.71;100.00
75740;BME280;64357;51.344;6.550;2023-05-10T00:40:36;100362.91;;;12.69;100.00
75740;BME280;64357;51.344;6.550;2023-05-10T00:43:04;100354.94;;;12.66;100.00
75740;BME280;64357;51.344;6.550;2023-05-10T00:45:33;100363.69;;;12.68;100.00
75740;BME280;64357;51.344;6.550;2023-05-10T00:48:07;100360.63;;;12.62;100.00
75740;BME280;64357;51.344;6.550;2023-05-10T00:50:32;100363.19;;;12.62;100.00
75740;BME280;64357;51.344;6.550;2023-05-10T00:53:04;100359.56;;;12.60;100.00
75740;BME280;64357;51.344;6.550;2023-05-10T00:55:32;100371.38;;;12.58;100.00
75740;BME280;64357;51.344;6.550;2023-05-10T00:57:57;100369.19;;;12.62;100.00
75740;BME280;64357;51.344;6.550;2023-05-10T01:00:23;100363.69;;;12.58;100.00
75740;BME280;64357;51.344;6.550;2023-05-10T01:02:48;100368.81;;;12.58;100.00
75740;BME280;64357;51.344;6.550;2023-05-10T01:05:16;100366.25;;;12.58;100.00
75740;BME280;64357;51.344;6.550;2023-05-10T01:07:42;100357.16;;;12.51;100.00
75740;BME280;64357;51.344;6.550;2023-05-10T01:10:08;100367.91;;;12.57;100.00
75740;BME280;64357;51.344;6.550;2023-05-10T01:12:38;100363.06;;;12.50;100.00
75740;BME280;64357;51.344;6.550;2023-05-10T01:15:08;100357.41;;;12.44;100.00
75740;BME280;64357;51.344;6.550;2023-05-10T01:17:42;100367.91;;;12.47;100.00
75740;BME280;64357;51.344;6.550;2023-05-10T01:20:10;100362.66;;;12.45;100.00
75740;BME280;64357;51.344;6.550;2023-05-10T01:25:45;100375.19;;;12.42;100.00
75740;BME280;64357;51.344;6.550;2023-05-10T01:33:58;100367.66;;;12.44;100.00
75740;BME280;64357;51.344;6.550;2023-05-10T01:36:32;100367.78;;;12.45;100.00
75740;BME280;64357;51.344;6.550;2023-05-10T01:39:17;100370.06;;;12.42;100.00
75740;BME280;64357;51.344;6.550;2023-05-10T01:44:27;100368.16;;;12.60;100.00
75740;BME280;64357;51.344;6.550;2023-05-10T01:47:03;100370.19;;;12.54;100.00
75740;BME280;64357;51.344;6.550;2023-05-10T01:49:34;100364.44;;;12.46;100.00
75740;BME280;64357;51.344;6.550;2023-05-10T01:52:14;100362.28;;;12.51;100.00
75740;BME280;64357;51.344;6.550;2023-05-10T01:54:49;100368.16;;;12.50;100.00
75740;BME280;64357;51.344;6.550;2023-05-10T01:57:16;100374.97;;;12.49;100.00
75740;BME280;64357;51.344;6.550;2023-05-10T01:59:48;100371.34;;;12.47;100.00
75740;BME280;64357;51.344;6.550;2023-05-10T02:02:20;100363.94;;;12.40;100.00
75740;BME280;64357;51.344;6.550;2023-05-10T02:04:48;100369.97;;;12.51;100.00
75740;BME280;64357;51.344;6.550;2023-05-10T02:07:17;100369.69;;;12.48;100.00
75740;BME280;64357;51.344;6.550;2023-05-10T02:09:46;100374.44;;;12.53;100.00
75740;BME280;64357;51.344;6.550;2023-05-10T02:12:13;100371.75;;;12.52;100.00
75740;BME280;64357;51.344;6.550;2023-05-10T02:14:45;100375.59;;;12.47;100.00
75740;BME280;64357;51.344;6.550;2023-05-10T02:17:12;100379.44;;;12.52;100.00
75740;BME280;64357;51.344;6.550;2023-05-10T02:19:43;100386.34;;;12.53;100.00
75740;BME280;64357;51.344;6.550;2023-05-10T02:22:11;100378.16;;;12.47;100.00
75740;BME280;64357;51.344;6.550;2023-05-10T02:24:43;100380.59;;;12.45;100.00
75740;BME280;64357;51.344;6.550;2023-05-10T02:27:10;100383.91;;;12.44;100.00
75740;BME280;64357;51.344;6.550;2023-05-10T02:29:38;100383.91;;;12.44;100.00
75740;BME280;64357;51.344;6.550;2023-05-10T02:32:07;100388.41;;;12.47;100.00
75740;BME280;64357;51.344;6.550;2023-05-10T02:34:34;100385.06;;;12.58;100.00
75740;BME280;64357;51.344;6.550;2023-05-10T02:37:01;100384.03;;;12.66;100.00
75740;BME280;64357;51.344;6.550;2023-05-10T02:39:27;100386.75;;;12.68;100.00
75740;BME280;64357;51.344;6.550;2023-05-10T02:41:55;100382.25;;;12.65;100.00
75740;BME280;64357;51.344;6.550;2023-05-10T02:44:28;100383.38;;;12.89;100.00
75740;BME280;64357;51.344;6.550;2023-05-10T02:46:56;100381.72;;;13.00;100.00
75740;BME280;64357;51.344;6.550;2023-05-10T02:49:22;100384.28;;;13.00;100.00
75740;BME280;64357;51.344;6.550;2023-05-10T02:51:56;100381.97;;;13.03;100.00
75740;BME280;64357;51.344;6.550;2023-05-10T02:54:30;100378.75;;;13.16;100.00
75740;BME280;64357;51.344;6.550;2023-05-10T02:56:59;100387.50;;;13.07;100.00
75740;BME280;64357;51.344;6.550;2023-05-10T02:59:26;100383.16;;;12.96;100.00
75740;BME280;64357;51.344;6.550;2023-05-10T03:01:51;100381.47;;;12.87;100.00
75740;BME280;64357;51.344;6.550;2023-05-10T03:04:17;100377.84;;;13.15;100.00
75740;BME280;64357;51.344;6.550;2023-05-10T03:06:43;100388.22;;;13.06;100.00
75740;BME280;64357;51.344;6.550;2023-05-10T03:09:09;100373.00;;;12.88;100.00
75740;BME280;64357;51.344;6.550;2023-05-10T03:12:11;100379.56;;;12.84;100.00
75740;BME280;64357;51.344;6.550;2023-05-10T03:20:42;100396.84;;;12.76;100.00
75740;BME280;64357;51.344;6.550;2023-05-10T03:23:17;100394.19;;;12.75;100.00
75740;BME280;64357;51.344;6.550;2023-05-10T03:25:46;100395.47;;;12.90;100.00
75740;BME280;64357;51.344;6.550;2023-05-10T03:28:16;100403.22;;;13.12;100.00
75740;BME280;64357;51.344;6.550;2023-05-10T03:30:43;100407.34;;;13.10;100.00
75740;BME280;64357;51.344;6.550;2023-05-10T03:33:09;100399.94;;;13.03;100.00
75740;BME280;64357;51.344;6.550;2023-05-10T03:35:37;100403.38;;;12.93;100.00
75740;BME280;64357;51.344;6.550;2023-05-10T03:38:03;100408.63;;;12.95;100.00
75740;BME280;64357;51.344;6.550;2023-05-10T03:40:31;100400.31;;;12.87;100.00
75740;BME280;64357;51.344;6.550;2023-05-10T03:42:59;100408.28;;;12.90;100.00
75740;BME280;64357;51.344;6.550;2023-05-10T03:45:25;100415.69;;;12.87;100.00
75740;BME280;64357;51.344;6.550;2023-05-10T03:47:55;100399.53;;;12.88;100.00
75740;BME280;64357;51.344;6.550;2023-05-10T03:50:21;100415.03;;;13.00;100.00
75740;BME280;64357;51.344;6.550;2023-05-10T03:52:47;100412.88;;;13.15;100.00
75740;BME280;64357;51.344;6.550;2023-05-10T03:55:15;100413.63;;;13.14;100.00
75740;BME280;64357;51.344;6.550;2023-05-10T03:57:41;100416.34;;;13.25;100.00
75740;BME280;64357;51.344;6.550;2023-05-10T04:00:10;100419.91;;;13.17;100.00
75740;BME280;64357;51.344;6.550;2023-05-10T04:02:36;100420.44;;;13.23;100.00
75740;BME280;64357;51.344;6.550;2023-05-10T04:05:01;100418.38;;;13.19;100.00
75740;BME280;64357;51.344;6.550;2023-05-10T04:07:29;100423.34;;;13.18;100.00
75740;BME280;64357;51.344;6.550;2023-05-10T04:09:54;100426.06;;;13.19;100.00
75740;BME280;64357;51.344;6.550;2023-05-10T04:12:22;100437.72;;;13.05;100.00
75740;BME280;64357;51.344;6.550;2023-05-10T04:14:48;100427.47;;;12.95;100.00
75740;BME280;64357;51.344;6.550;2023-05-10T04:17:13;100429.66;;;13.01;100.00
75740;BME280;64357;51.344;6.550;2023-05-10T04:19:39;100429.53;;;12.99;100.00
75740;BME280;64357;51.344;6.550;2023-05-10T04:22:04;100431.72;;;12.95;100.00
75740;BME280;64357;51.344;6.550;2023-05-10T04:24:32;100430.19;;;12.97;100.00
75740;BME280;64357;51.344;6.550;2023-05-10T04:26:57;100433.00;;;13.00;100.00
75740;BME280;64357;51.344;6.550;2023-05-10T04:29:25;100430.03;;;13.05;100.00
75740;BME280;64357;51.344;6.550;2023-05-10T04:31:51;100428.13;;;13.03;100.00
75740;BME280;64357;51.344;6.550;2023-05-10T04:34:16;100436.34;;;13.09;100.00
75740;BME280;64357;51.344;6.550;2023-05-10T04:36:41;100432.88;;;12.98;100.00
75740;BME280;64357;51.344;6.550;2023-05-10T04:39:07;100425.69;;;12.94;100.00
75740;BME280;64357;51.344;6.550;2023-05-10T04:41:32;100428.13;;;12.93;100.00
75740;BME280;64357;51.344;6.550;2023-05-10T04:43:58;100429.16;;;12.95;100.00
75740;BME280;64357;51.344;6.550;2023-05-10T04:46:23;100435.03;;;12.94;100.00
75740;BME280;64357;51.344;6.550;2023-05-10T04:48:49;100436.84;;;12.95;100.00
75740;BME280;64357;51.344;6.550;2023-05-10T04:51:14;100431.09;;;12.97;100.00
75740;BME280;64357;51.344;6.550;2023-05-10T04:53:42;100439.91;;;13.01;100.00
75740;BME280;64357;51.344;6.550;2023-05-10T04:56:10;100434.94;;;13.02;100.00
75740;BME280;64357;51.344;6.550;2023-05-10T04:58:35;100441.47;;;12.99;100.00
75740;BME280;64357;51.344;6.550;2023-05-10T05:01:10;100434.41;;;12.96;100.00
75740;BME280;64357;51.344;6.550;2023-05-10T05:03:37;100448.25;;;13.08;100.00
75740;BME280;64357;51.344;6.550;2023-05-10T05:06:03;100453.78;;;13.03;100.00
75740;BME280;64357;51.344;6.550;2023-05-10T05:08:29;100450.56;;;13.05;100.00
75740;BME280;64357;51.344;6.550;2023-05-10T05:10:54;100444.28;;;13.02;100.00
75740;BME280;64357;51.344;6.550;2023-05-10T05:13:22;100450.94;;;13.00;100.00
75740;BME280;64357;51.344;6.550;2023-05-10T05:15:47;100454.94;;;12.96;100.00
75740;BME280;64357;51.344;6.550;2023-05-10T05:18:13;100458.91;;;13.03;100.00
75740;BME280;64357;51.344;6.550;2023-05-10T05:20:41;100466.72;;;13.04;100.00
75740;BME280;64357;51.344;6.550;2023-05-10T05:23:07;100466.44;;;13.12;100.00
75740;BME280;64357;51.344;6.550;2023-05-10T05:25:35;100460.03;;;13.17;100.00
75740;BME280;64357;51.344;6.550;2023-05-10T05:28:03;100467.59;;;13.05;100.00
75740;BME280;64357;51.344;6.550;2023-05-10T05:30:31;100461.84;;;12.97;100.00
75740;BME280;64357;51.344;6.550;2023-05-10T05:32:58;100466.44;;;13.01;100.00
75740;BME280;64357;51.344;6.550;2023-05-10T05:35:29;100465.44;;;12.99;100.00
75740;BME280;64357;51.344;6.550;2023-05-10T05:37:56;100472.88;;;12.96;100.00
75740;BME280;64357;51.344;6.550;2023-05-10T05:40:25;100475.81;;;13.01;100.00
75740;BME280;64357;51.344;6.550;2023-05-10T05:42:50;100473.50;;;12.94;100.00
75740;BME280;64357;51.344;6.550;2023-05-10T05:45:16;100481.19;;;13.04;100.00
75740;BME280;64357;51.344;6.550;2023-05-10T05:47:41;100477.38;;;13.09;100.00
75740;BME280;64357;51.344;6.550;2023-05-10T05:50:09;100479.66;;;13.06;100.00
75740;BME280;64357;51.344;6.550;2023-05-10T05:52:38;100487.75;;;13.11;100.00
75740;BME280;64357;51.344;6.550;2023-05-10T05:55:04;100485.56;;;13.05;100.00
75740;BME280;64357;51.344;6.550;2023-05-10T05:57:30;100491.69;;;13.07;100.00
75740;BME280;64357;51.344;6.550;2023-05-10T05:59:57;100498.28;;;13.14;100.00
75740;BME280;64357;51.344;6.550;2023-05-10T06:02:22;100497.72;;;13.18;100.00
75740;BME280;64357;51.344;6.550;2023-05-10T06:04:51;100490.19;;;13.19;100.00
75740;BME280;64357;51.344;6.550;2023-05-10T06:07:17;100502.41;;;13.32;100.00
75740;BME280;64357;51.344;6.550;2023-05-10T06:09:42;100507.00;;;13.36;100.00
75740;BME280;64357;51.344;6.550;2023-05-10T06:12:10;100497.63;;;13.47;100.00
75740;BME280;64357;51.344;6.550;2023-05-10T06:14:36;100498.72;;;13.71;100.00
75740;BME280;64357;51.344;6.550;2023-05-10T06:17:02;100501.81;;;13.67;100.00
75740;BME280;64357;51.344;6.550;2023-05-10T06:19:29;100507.31;;;13.71;100.00
75740;BME280;64357;51.344;6.550;2023-05-10T06:21:54;100514.50;;;13.75;100.00
75740;BME280;64357;51.344;6.550;2023-05-10T06:24:19;100514.91;;;13.59;100.00
75740;BME280;64357;51.344;6.550;2023-05-10T06:26:46;100522.38;;;13.56;100.00
75740;BME280;64357;51.344;6.550;2023-05-10T06:29:11;100516.44;;;13.68;100.00
75740;BME280;64357;51.344;6.550;2023-05-10T06:31:37;100516.78;;;13.82;100.00
75740;BME280;64357;51.344;6.550;2023-05-10T06:34:04;100522.28;;;13.87;100.00
75740;BME280;64357;51.344;6.550;2023-05-10T06:36:31;100519.53;;;13.64;100.00
75740;BME280;64357;51.344;6.550;2023-05-10T06:38:59;100526.63;;;13.56;100.00
75740;BME280;64357;51.344;6.550;2023-05-10T06:41:24;100523.16;;;13.35;100.00
75740;BME280;64357;51.344;6.550;2023-05-10T06:43:49;100530.72;;;13.23;100.00
75740;BME280;64357;51.344;6.550;2023-05-10T06:46:18;100531.63;;;13.34;100.00
75740;BME280;64357;51.344;6.550;2023-05-10T06:48:44;100532.63;;;13.36;100.00
75740;BME280;64357;51.344;6.550;2023-05-10T06:51:09;100528.53;;;13.48;100.00
75740;BME280;64357;51.344;6.550;2023-05-10T06:53:37;100527.13;;;13.52;100.00
75740;BME280;64357;51.344;6.550;2023-05-10T06:56:03;100534.06;;;13.32;100.00
75740;BME280;64357;51.344;6.550;2023-05-10T06:58:31;100532.13;;;13.40;100.00
75740;BME280;64357;51.344;6.550;2023-05-10T07:01:04;100539.44;;;13.46;100.00
75740;BME280;64357;51.344;6.550;2023-05-10T07:03:31;100546.75;;;13.62;100.00
75740;BME280;64357;51.344;6.550;2023-05-10T07:06:05;100546.09;;;13.54;100.00
75740;BME280;64357;51.344;6.550;2023-05-10T07:08:33;100549.81;;;13.78;100.00
75740;BME280;64357;51.344;6.550;2023-05-10T07:11:07;100531.19;;;13.70;100.00
75740;BME280;64357;51.344;6.550;2023-05-10T07:13:32;100541.63;;;14.04;100.00
75740;BME280;64357;51.344;6.550;2023-05-10T07:15:59;100545.91;;;13.83;100.00
75740;BME280;64357;51.344;6.550;2023-05-10T07:18:24;100543.41;;;13.73;100.00
75740;BME280;64357;51.344;6.550;2023-05-10T07:20:50;100550.94;;;13.71;100.00
75740;BME280;64357;51.344;6.550;2023-05-10T07:23:15;100550.84;;;13.70;100.00
75740;BME280;64357;51.344;6.550;2023-05-10T07:25:47;100545.59;;;13.68;100.00
75740;BME280;64357;51.344;6.550;2023-05-10T07:28:14;100544.50;;;13.86;100.00
75740;BME280;64357;51.344;6.550;2023-05-10T07:30:39;100550.03;;;13.91;100.00
75740;BME280;64357;51.344;6.550;2023-05-10T07:33:05;100546.00;;;14.05;100.00
75740;BME280;64357;51.344;6.550;2023-05-10T07:35:30;100546.13;;;14.06;100.00
75740;BME280;64357;51.344;6.550;2023-05-10T07:37:56;100548.06;;;14.09;100.00
75740;BME280;64357;51.344;6.550;2023-05-10T07:40:21;100546.28;;;14.30;100.00
75740;BME280;64357;51.344;6.550;2023-05-10T07:42:46;100547.31;;;14.32;100.00
75740;BME280;64357;51.344;6.550;2023-05-10T07:45:12;100550.50;;;14.50;100.00
75740;BME280;64357;51.344;6.550;2023-05-10T07:47:37;100553.72;;;14.37;100.00
75740;BME280;64357;51.344;6.550;2023-05-10T07:50:05;100551.78;;;14.34;100.00
75740;BME280;64357;51.344;6.550;2023-05-10T07:52:31;100561.25;;;14.46;100.00
75740;BME280;64357;51.344;6.550;2023-05-10T07:55:01;100559.81;;;14.17;100.00
75740;BME280;64357;51.344;6.550;2023-05-10T07:57:29;100563.84;;;14.13;100.00
75740;BME280;64357;51.344;6.550;2023-05-10T08:00:06;100570.00;;;14.05;99.80
75740;BME280;64357;51.344;6.550;2023-05-10T08:02:34;100571.19;;;13.88;100.00
75740;BME280;64357;51.344;6.550;2023-05-10T08:05:10;100575.25;;;14.07;100.00
75740;BME280;64357;51.344;6.550;2023-05-10T08:07:35;100570.19;;;13.97;98.94
75740;BME280;64357;51.344;6.550;2023-05-10T08:10:04;100578.00;;;13.88;97.32
75740;BME280;64357;51.344;6.550;2023-05-10T08:12:30;100572.78;;;13.76;96.91
75740;BME280;64357;51.344;6.550;2023-05-10T08:15:01;100587.28;;;13.86;98.25
75740;BME280;64357;51.344;6.550;2023-05-10T08:17:27;100572.50;;;13.83;97.93
75740;BME280;64357;51.344;6.550;2023-05-10T08:19:52;100593.47;;;13.78;99.88
75740;BME280;64357;51.344;6.550;2023-05-10T08:22:18;100593.53;;;14.00;99.00
75740;BME280;64357;51.344;6.550;2023-05-10T08:24:43;100591.63;;;13.97;98.96
75740;BME280;64357;51.344;6.550;2023-05-10T08:27:09;100592.22;;;14.15;98.00
75740;BME280;64357;51.344;6.550;2023-05-10T08:29:40;100593.38;;;14.61;97.22
75740;BME280;64357;51.344;6.550;2023-05-10T08:32:11;100593.97;;;14.90;94.52
75740;BME280;64357;51.344;6.550;2023-05-10T08:34:36;100593.41;;;14.51;94.79
75740;BME280;64357;51.344;6.550;2023-05-10T08:37:05;100588.94;;;14.48;94.08
75740;BME280;64357;51.344;6.550;2023-05-10T08:39:35;100603.56;;;14.39;94.31
75740;BME280;64357;51.344;6.550;2023-05-10T08:42:04;100601.91;;;14.50;94.96
75740;BME280;64357;51.344;6.550;2023-05-10T08:44:32;100598.66;;;14.52;94.29
75740;BME280;64357;51.344;6.550;2023-05-10T08:47:04;100610.50;;;14.40;94.87
75740;BME280;64357;51.344;6.550;2023-05-10T08:49:47;100608.31;;;14.45;96.09
75740;BME280;64357;51.344;6.550;2023-05-10T08:52:15;100614.63;;;14.70;95.46
75740;BME280;64357;51.344;6.550;2023-05-10T08:54:45;100605.06;;;14.57;93.01
75740;BME280;64357;51.344;6.550;2023-05-10T08:57:13;100629.75;;;14.45;93.09
75740;BME280;64357;51.344;6.550;2023-05-10T08:59:38;100623.97;;;14.48;93.37
75740;BME280;64357;51.344;6.550;2023-05-10T09:02:07;100620.00;;;14.51;93.36
75740;BME280;64357;51.344;6.550;2023-05-10T09:04:35;100625.16;;;14.83;92.68
75740;BME280;64357;51.344;6.550;2023-05-10T09:07:00;100629.13;;;14.48;92.72
75740;BME280;64357;51.344;6.550;2023-05-10T09:09:29;100628.50;;;14.50;91.74
75740;BME280;64357;51.344;6.550;2023-05-10T09:12:01;100635.78;;;14.46;90.15
75740;BME280;64357;51.344;6.550;2023-05-10T09:14:27;100629.00;;;14.36;90.67
75740;BME280;64357;51.344;6.550;2023-05-10T09:16:53;100635.41;;;14.41;91.56
75740;BME280;64357;51.344;6.550;2023-05-10T09:19:21;100650.16;;;14.64;91.72
75740;BME280;64357;51.344;6.550;2023-05-10T09:21:56;100636.09;;;14.71;90.31
75740;BME280;64357;51.344;6.550;2023-05-10T09:24:30;100644.91;;;14.62;91.52
75740;BME280;64357;51.344;6.550;2023-05-10T09:26:57;100650.97;;;14.43;92.76
75740;BME280;64357;51.344;6.550;2023-05-10T09:29:23;100660.88;;;14.38;92.72
75740;BME280;64357;51.344;6.550;2023-05-10T09:31:52;100656.16;;;14.22;93.25
75740;BME280;64357;51.344;6.550;2023-05-10T09:34:31;100658.50;;;14.09;95.34
75740;BME280;64357;51.344;6.550;2023-05-10T09:37:02;100677.38;;;13.99;97.06
75740;BME280;64357;51.344;6.550;2023-05-10T09:43:04;100643.63;;;13.64;97.33
75740;BME280;64357;51.344;6.550;2023-05-10T09:45:29;100655.44;;;13.82;97.54
75740;BME280;64357;51.344;6.550;2023-05-10T09:47:55;100681.13;;;14.03;95.83
75740;BME280;64357;51.344;6.550;2023-05-10T09:50:21;100675.84;;;13.91;95.03
75740;BME280;64357;51.344;6.550;2023-05-10T09:53:00;100670.72;;;14.01;95.50
75740;BME280;64357;51.344;6.550;2023-05-10T09:55:42;100669.28;;;14.15;95.04
75740;BME280;64357;51.344;6.550;2023-05-10T09:58:09;100679.28;;;14.32;94.19
75740;BME280;64357;51.344;6.550;2023-05-10T10:00:39;100661.50;;;14.46;93.71
75740;BME280;64357;51.344;6.550;2023-05-10T10:03:05;100667.03;;;14.50;92.73
75740;BME280;64357;51.344;6.550;2023-05-10T10:05:34;100674.16;;;14.75;92.07
75740;BME280;64357;51.344;6.550;2023-05-10T10:08:03;100663.50;;;14.70;90.67
75740;BME280;64357;51.344;6.550;2023-05-10T10:10:28;100673.56;;;14.67;90.43
75740;BME280;64357;51.344;6.550;2023-05-10T10:12:55;100660.31;;;14.62;91.28
75740;BME280;64357;51.344;6.550;2023-05-10T10:15:26;100672.50;;;14.65;91.36
75740;BME280;64357;51.344;6.550;2023-05-10T10:17:56;100674.75;;;14.40;92.75
75740;BME280;64357;51.344;6.550;2023-05-10T10:20:26;100681.16;;;14.55;92.75
75740;BME280;64357;51.344;6.550;2023-05-10T10:22:52;100684.38;;;14.53;92.27
75740;BME280;64357;51.344;6.550;2023-05-10T10:25:18;100669.16;;;14.13;92.79
75740;BME280;64357;51.344;6.550;2023-05-10T10:27:59;100663.38;;;14.16;91.92
75740;BME280;64357;51.344;6.550;2023-05-10T10:36:00;100689.53;;;14.53;92.81
75740;BME280;64357;51.344;6.550;2023-05-10T10:41:48;100675.47;;;14.59;92.07
75740;BME280;64357;51.344;6.550;2023-05-10T10:52:30;100675.72;;;14.94;91.57
75740;BME280;64357;51.344;6.550;2023-05-10T10:55:08;100690.34;;;15.28;90.09
75740;BME280;64357;51.344;6.550;2023-05-10T11:10:34;100694.91;;;15.20;88.76
75740;BME280;64357;51.344;6.550;2023-05-10T11:13:05;100705.53;;;15.03;89.32
75740;BME280;64357;51.344;6.550;2023-05-10T11:15:32;100708.50;;;15.07;89.27
75740;BME280;64357;51.344;6.550;2023-05-10T11:18:20;100711.81;;;15.06;89.90
75740;BME280;64357;51.344;6.550;2023-05-10T11:20:55;100701.81;;;14.99;89.72
75740;BME280;64357;51.344;6.550;2023-05-10T11:23:29;100708.91;;;15.02;89.28
75740;BME280;64357;51.344;6.550;2023-05-10T11:26:02;100713.34;;;15.14;88.60
75740;BME280;64357;51.344;6.550;2023-05-10T11:28:28;100711.47;;;15.02;87.99
75740;BME280;64357;51.344;6.550;2023-05-10T11:30:56;100710.91;;;15.06;88.11
75740;BME280;64357;51.344;6.550;2023-05-10T11:33:22;100721.53;;;15.20;86.96
75740;BME280;64357;51.344;6.550;2023-05-10T11:35:50;100727.50;;;15.09;87.16
75740;BME280;64357;51.344;6.550;2023-05-10T11:38:15;100724.47;;;14.93;88.26
75740;BME280;64357;51.344;6.550;2023-05-10T11:40:41;100723.09;;;14.86;88.64
75740;BME280;64357;51.344;6.550;2023-05-10T11:43:08;100716.78;;;14.83;89.16
75740;BME280;64357;51.344;6.550;2023-05-10T11:45:35;100708.41;;;14.96;89.26
75740;BME280;64357;51.344;6.550;2023-05-10T11:48:04;100722.19;;;15.18;87.82
75740;BME280;64357;51.344;6.550;2023-05-10T11:50:32;100722.81;;;15.26;87.92
75740;BME280;64357;51.344;6.550;2023-05-10T11:52:59;100726.50;;;15.07;88.79
75740;BME280;64357;51.344;6.550;2023-05-10T11:55:27;100714.72;;;15.21;88.29
75740;BME280;64357;51.344;6.550;2023-05-10T11:57:55;100705.31;;;15.43;87.38
75740;BME280;64357;51.344;6.550;2023-05-10T12:00:25;100721.84;;;15.79;86.19
75740;BME280;64357;51.344;6.550;2023-05-10T12:02:50;100720.56;;;15.62;85.32
75740;BME280;64357;51.344;6.550;2023-05-10T12:05:20;100717.28;;;15.65;84.39
75740;BME280;64357;51.344;6.550;2023-05-10T12:07:46;100719.13;;;15.66;82.87
75740;BME280;64357;51.344;6.550;2023-05-10T12:10:12;100713.94;;;15.99;82.51
75740;BME280;64357;51.344;6.550;2023-05-10T12:12:44;100711.69;;;16.49;80.74
75740;BME280;64357;51.344;6.550;2023-05-10T12:15:17;100711.38;;;17.65;76.88
75740;BME280;64357;51.344;6.550;2023-05-10T12:17:44;100709.28;;;17.11;73.79
75740;BME280;64357;51.344;6.550;2023-05-10T12:20:20;100710.50;;;17.53;73.93
75740;BME280;64357;51.344;6.550;2023-05-10T12:22:55;100708.56;;;18.12;70.99
75740;BME280;64357;51.344;6.550;2023-05-10T12:25:22;100709.00;;;18.18;68.81
75740;BME280;64357;51.344;6.550;2023-05-10T12:27:49;100708.59;;;18.52;68.49
75740;BME280;64357;51.344;6.550;2023-05-10T12:30:20;100709.34;;;18.89;67.50
75740;BME280;64357;51.344;6.550;2023-05-10T12:32:46;100708.72;;;17.89;70.28
75740;BME280;64357;51.344;6.550;2023-05-10T12:35:14;100706.69;;;18.23;70.44
75740;BME280;64357;51.344;6.550;2023-05-10T12:37:41;100702.38;;;18.10;71.06
75740;BME280;64357;51.344;6.550;2023-05-10T12:40:10;100704.31;;;18.13;71.08
75740;BME280;64357;51.344;6.550;2023-05-10T12:42:36;100717.81;;;18.22;69.78
75740;BME280;64357;51.344;6.550;2023-05-10T12:45:03;100714.63;;;17.63;71.51
75740;BME280;64357;51.344;6.550;2023-05-10T12:47:29;100712.00;;;17.49;72.07
75740;BME280;64357;51.344;6.550;2023-05-10T12:49:57;100721.06;;;17.19;73.30
75740;BME280;64357;51.344;6.550;2023-05-10T12:52:23;100714.69;;;17.51;72.56
75740;BME280;64357;51.344;6.550;2023-05-10T12:54:49;100712.16;;;18.14;71.27
75740;BME280;64357;51.344;6.550;2023-05-10T12:57:14;100715.38;;;18.36;69.68
75740;BME280;64357;51.344;6.550;2023-05-10T12:59:39;100715.56;;;18.39;69.44
75740;BME280;64357;51.344;6.550;2023-05-10T13:02:06;100717.47;;;17.91;71.15
75740;BME280;64357;51.344;6.550;2023-05-10T13:04:31;100720.06;;;18.04;70.75
75740;BME280;64357;51.344;6.550;2023-05-10T13:06:56;100724.38;;;18.17;69.23
75740;BME280;64357;51.344;6.550;2023-05-10T13:09:24;100732.09;;;18.42;68.13
75740;BME280;64357;51.344;6.550;2023-05-10T13:11:52;100730.00;;;18.62;67.60
75740;BME280;64357;51.344;6.550;2023-05-10T13:14:19;100727.50;;;17.99;69.34
75740;BME280;64357;51.344;6.550;2023-05-10T13:16:46;100734.28;;;18.35;68.33
75740;BME280;64357;51.344;6.550;2023-05-10T13:19:11;100740.84;;;18.44;67.63
75740;BME280;64357;51.344;6.550;2023-05-10T13:21:37;100735.47;;;18.02;69.17
75740;BME280;64357;51.344;6.550;2023-05-10T13:24:02;100732.69;;;18.51;67.00
75740;BME280;64357;51.344;6.550;2023-05-10T13:26:28;100732.03;;;18.15;68.52
75740;BME280;64357;51.344;6.550;2023-05-10T13:28:53;100731.69;;;17.97;69.86
75740;BME280;64357;51.344;6.550;2023-05-10T13:31:23;100727.09;;;17.93;70.07
75740;BME280;64357;51.344;6.550;2023-05-10T13:33:51;100723.22;;;18.25;69.67
75740;BME280;64357;51.344;6.550;2023-05-10T13:36:16;100730.16;;;18.77;68.24
75740;BME280;64357;51.344;6.550;2023-05-10T13:38:42;100726.34;;;18.59;69.16